Time;durP1;ratioP1;P1;durP2;ratioP2;P2;SDS_P1;SDS_P2;PMS_P1;PMS_P2;Temp;Humidity;BMP_temperature;BMP_pressure;BME280_temperature;BME280_humidity;BME280_pressure;Samples;Min_cycle;Max_cycle;Signal;HPM_P1;HPM_P2
2023/07/19 00:00:21;;;;;;;7.13;4.93;;;18.50;60.40;;;;;;5229529;28;20179;-46
2023/07/19 00:02:52;;;;;;;9.30;4.80;;;18.40;60.70;;;;;;5235097;28;20182;-46
2023/07/19 00:05:23;;;;;;;4.77;4.03;;;18.40;60.90;;;;;;5235307;28;20265;-46
2023/07/19 00:07:54;;;;;;;12.40;5.67;;;18.30;61.40;;;;;;5217426;28;20709;-46
2023/07/19 00:10:24;;;;;;;7.97;4.93;;;18.30;61.90;;;;;;5233796;28;20562;-47
2023/07/19 00:12:55;;;;;;;7.23;4.93;;;18.30;62.30;;;;;;5242070;28;20187;-48
2023/07/19 00:15:25;;;;;;;5.90;4.07;;;18.30;62.90;;;;;;5224464;28;20216;-47
2023/07/19 00:17:56;;;;;;;6.43;3.93;;;18.20;63.20;;;;;;5226492;28;20225;-48
2023/07/19 00:20:27;;;;;;;4.87;3.87;;;18.20;63.60;;;;;;5220502;28;20202;-47
2023/07/19 00:22:58;;;;;;;5.30;3.87;;;18.20;64.00;;;;;;5226790;28;20317;-47
2023/07/19 00:25:28;;;;;;;7.10;3.67;;;18.10;64.60;;;;;;5235614;28;20193;-46
2023/07/19 00:27:59;;;;;;;7.70;5.03;;;18.10;65.10;;;;;;5217898;28;20596;-46
2023/07/19 00:30:29;;;;;;;7.00;4.67;;;18.10;66.20;;;;;;5246797;28;20171;-46
2023/07/19 00:33:00;;;;;;;6.07;4.00;;;18.00;66.90;;;;;;5223711;28;20199;-48
2023/07/19 00:35:32;;;;;;;5.97;4.53;;;18.00;67.00;;;;;;5232336;28;20235;-48
2023/07/19 00:38:02;;;;;;;5.80;3.70;;;18.00;67.80;;;;;;5228303;28;20239;-47
2023/07/19 00:40:34;;;;;;;8.83;4.23;;;18.00;68.70;;;;;;5245818;28;20433;-48
2023/07/19 00:43:09;;;;;;;8.30;4.37;;;18.00;69.40;;;;;;5248649;28;20181;-47
2023/07/19 00:45:53;;;;;;;8.40;4.07;;;18.00;70.60;;;;;;5235349;28;20408;-46
2023/07/19 00:48:24;;;;;;;8.97;4.47;;;18.00;71.00;;;;;;5206741;28;20917;-47
2023/07/19 00:50:55;;;;;;;6.50;4.30;;;17.90;72.60;;;;;;5248119;28;20493;-46
2023/07/19 00:53:27;;;;;;;6.20;3.90;;;17.90;73.50;;;;;;5238948;28;20864;-48
2023/07/19 00:55:58;;;;;;;5.40;4.23;;;17.90;74.60;;;;;;5224762;28;20207;-47
2023/07/19 00:58:29;;;;;;;5.17;4.03;;;17.90;75.60;;;;;;5229340;28;20475;-46
2023/07/19 01:01:01;;;;;;;6.10;4.13;;;17.90;76.90;;;;;;5218497;28;20565;-47
2023/07/19 01:03:31;;;;;;;8.97;5.07;;;17.90;77.70;;;;;;5229524;28;20830;-48
2023/07/19 01:06:05;;;;;;;8.07;5.30;;;17.90;78.60;;;;;;5234743;28;20455;-47
2023/07/19 01:08:36;;;;;;;5.67;4.40;;;17.90;79.50;;;;;;5246608;28;20237;-46
2023/07/19 01:11:06;;;;;;;5.17;4.03;;;17.80;80.30;;;;;;5246932;28;20468;-47
2023/07/19 01:13:37;;;;;;;6.63;3.60;;;17.70;81.10;;;;;;5240216;28;20178;-47
2023/07/19 01:16:07;;;;;;;4.80;3.90;;;17.60;82.70;;;;;;5226392;28;20198;-46
2023/07/19 01:18:38;;;;;;;4.30;4.00;;;17.70;84.50;;;;;;5239261;28;20229;-47
2023/07/19 01:21:09;;;;;;;4.93;3.93;;;17.60;85.30;;;;;;5245990;28;20178;-47
2023/07/19 01:23:40;;;;;;;4.50;3.87;;;17.60;85.90;;;;;;5226678;28;20171;-46
2023/07/19 01:26:10;;;;;;;7.13;4.30;;;17.60;86.40;;;;;;5245936;28;20568;-46
2023/07/19 01:28:41;;;;;;;4.93;3.93;;;17.50;87.00;;;;;;5244626;28;20201;-47
2023/07/19 01:31:17;;;;;;;7.37;4.50;;;17.50;87.40;;;;;;5220279;28;20639;-47
2023/07/19 01:33:47;;;;;;;6.90;4.40;;;17.50;87.10;;;;;;5234676;28;20236;-46
2023/07/19 01:36:18;;;;;;;7.77;3.37;;;17.50;86.70;;;;;;5219240;28;20434;-47
2023/07/19 01:38:48;;;;;;;6.00;3.40;;;17.50;86.70;;;;;;5223858;28;20198;-46
2023/07/19 01:41:20;;;;;;;5.93;3.80;;;17.40;87.50;;;;;;5224090;28;20194;-47
2023/07/19 01:43:51;;;;;;;3.93;3.40;;;17.40;87.80;;;;;;5237761;28;20183;-47
2023/07/19 01:46:22;;;;;;;7.43;3.53;;;17.40;87.60;;;;;;5230821;28;20527;-46
2023/07/19 01:48:53;;;;;;;3.97;3.57;;;17.40;87.90;;;;;;5207819;28;20537;-48
2023/07/19 01:51:23;;;;;;;5.93;3.03;;;17.40;88.00;;;;;;5231385;28;20531;-47
2023/07/19 01:53:54;;;;;;;4.13;2.90;;;17.30;88.20;;;;;;5238843;28;20536;-47
2023/07/19 01:56:24;;;;;;;3.20;3.00;;;17.30;88.80;;;;;;5232013;28;20232;-47
2023/07/19 01:58:55;;;;;;;3.67;3.07;;;17.30;89.20;;;;;;5218388;28;20214;-46
2023/07/19 02:01:26;;;;;;;4.47;3.27;;;17.30;89.60;;;;;;5230081;28;20282;-47
2023/07/19 02:03:56;;;;;;;5.40;3.60;;;17.30;89.60;;;;;;5226733;28;20185;-47
2023/07/19 02:06:27;;;;;;;3.43;2.83;;;17.30;89.30;;;;;;5231071;28;20183;-46
2023/07/19 02:08:58;;;;;;;6.53;3.40;;;17.30;89.60;;;;;;5220335;28;20194;-48
2023/07/19 02:11:29;;;;;;;4.10;2.90;;;17.40;89.70;;;;;;5238590;28;20433;-46
2023/07/19 02:13:59;;;;;;;6.23;3.03;;;17.40;89.60;;;;;;5227066;28;20176;-49
2023/07/19 02:16:30;;;;;;;4.83;2.80;;;17.40;89.10;;;;;;5235856;28;20175;-48
2023/07/19 02:19:03;;;;;;;4.47;2.87;;;17.30;89.00;;;;;;5235435;28;20187;-47
2023/07/19 02:21:34;;;;;;;2.17;2.07;;;17.30;89.00;;;;;;5233262;28;20220;-47
2023/07/19 02:24:05;;;;;;;2.83;2.23;;;17.30;89.20;;;;;;5214424;28;20476;-46
2023/07/19 02:26:35;;;;;;;2.43;2.33;;;17.30;89.50;;;;;;5231451;28;20182;-46
2023/07/19 02:29:06;;;;;;;2.47;2.27;;;17.30;90.00;;;;;;5234694;28;20199;-45
2023/07/19 02:31:37;;;;;;;3.50;2.50;;;17.30;89.30;;;;;;5232599;28;20246;-45
2023/07/19 02:34:08;;;;;;;3.30;2.57;;;17.20;89.30;;;;;;5232452;28;20207;-46
2023/07/19 02:36:39;;;;;;;5.13;2.30;;;17.30;89.60;;;;;;5246799;28;20427;-46
2023/07/19 02:39:09;;;;;;;2.57;2.37;;;17.30;89.50;;;;;;5236234;28;20207;-47
2023/07/19 02:41:40;;;;;;;2.77;2.67;;;17.30;89.00;;;;;;5231797;28;20180;-47
2023/07/19 02:44:11;;;;;;;1.97;1.87;;;17.40;88.80;;;;;;5220732;28;20236;-47
2023/07/19 02:46:41;;;;;;;14.33;2.80;;;17.40;88.60;;;;;;5227361;28;20185;-46
2023/07/19 02:49:12;;;;;;;11.73;2.20;;;17.50;88.30;;;;;;5215724;28;20213;-46
2023/07/19 02:51:42;;;;;;;1.57;1.47;;;17.50;86.70;;;;;;5234045;28;20182;-47
2023/07/19 02:54:13;;;;;;;2.87;2.20;;;17.60;86.00;;;;;;5210766;28;20199;-46
2023/07/19 02:56:44;;;;;;;2.30;2.10;;;17.60;85.80;;;;;;5220171;28;20179;-46
2023/07/19 02:59:15;;;;;;;2.67;1.60;;;17.60;85.20;;;;;;5211273;28;20527;-46
2023/07/19 03:01:46;;;;;;;2.80;1.77;;;17.70;84.60;;;;;;5215643;28;20213;-48
2023/07/19 03:04:16;;;;;;;4.23;1.93;;;17.70;84.20;;;;;;5219613;28;20640;-47
2023/07/19 03:06:48;;;;;;;1.50;1.40;;;17.70;83.70;;;;;;5237085;28;20182;-46
2023/07/19 03:09:19;;;;;;;1.90;1.80;;;17.70;83.50;;;;;;5235725;28;20545;-46
2023/07/19 03:11:51;;;;;;;3.70;2.10;;;17.80;83.40;;;;;;5240291;28;20492;-48
2023/07/19 03:14:22;;;;;;;1.83;1.73;;;17.80;83.60;;;;;;5236669;28;20800;-46
2023/07/19 03:16:52;;;;;;;5.27;2.60;;;17.80;83.60;;;;;;5206029;28;20451;-47
2023/07/19 03:19:23;;;;;;;3.80;1.93;;;17.90;83.80;;;;;;5205690;28;20684;-46
2023/07/19 03:21:54;;;;;;;2.53;2.17;;;17.90;83.70;;;;;;5228306;28;20214;-46
2023/07/19 03:24:24;;;;;;;4.00;2.20;;;18.00;83.70;;;;;;5219210;28;20586;-47
2023/07/19 03:26:55;;;;;;;2.10;2.00;;;18.00;83.60;;;;;;5233028;28;20191;-46
2023/07/19 03:29:25;;;;;;;2.03;1.90;;;18.00;83.80;;;;;;5215003;28;20693;-47
2023/07/19 03:31:56;;;;;;;1.63;1.53;;;18.00;83.90;;;;;;5228434;28;20193;-47
2023/07/19 03:34:26;;;;;;;3.33;1.77;;;18.10;82.00;;;;;;5213610;28;20578;-48
2023/07/19 03:36:57;;;;;;;1.93;1.80;;;18.20;81.00;;;;;;5242969;28;20178;-47
2023/07/19 03:39:28;;;;;;;1.47;1.47;;;18.30;80.20;;;;;;5230698;28;20711;-48
2023/07/19 03:41:58;;;;;;;1.87;1.60;;;18.40;78.80;;;;;;5229611;28;20639;-47
2023/07/19 03:44:29;;;;;;;2.00;1.70;;;18.40;77.50;;;;;;5227011;28;20183;-46
2023/07/19 03:47:00;;;;;;;4.80;1.47;;;18.40;76.90;;;;;;5239963;28;20191;-46
2023/07/19 03:49:31;;;;;;;2.23;1.83;;;18.40;76.50;;;;;;5202694;28;20175;-47
2023/07/19 03:52:01;;;;;;;3.80;1.50;;;18.40;76.00;;;;;;5230409;28;20186;-47
2023/07/19 03:54:32;;;;;;;1.33;1.13;;;18.40;75.30;;;;;;5242701;28;20300;-47
2023/07/19 03:57:03;;;;;;;1.73;1.10;;;18.50;75.30;;;;;;5233585;28;20243;-47
2023/07/19 03:59:33;;;;;;;1.70;1.60;;;18.60;75.10;;;;;;5216688;28;20270;-46
2023/07/19 04:02:04;;;;;;;1.80;1.30;;;18.70;74.50;;;;;;5224552;28;20647;-48
2023/07/19 04:04:35;;;;;;;1.47;1.40;;;18.90;74.20;;;;;;5231959;28;20191;-47
2023/07/19 04:07:06;;;;;;;1.23;1.23;;;19.00;73.80;;;;;;5224082;28;20530;-48
2023/07/19 04:09:36;;;;;;;1.57;1.47;;;19.20;73.30;;;;;;5227517;28;20182;-47
2023/07/19 04:12:07;;;;;;;2.10;1.00;;;19.40;72.20;;;;;;5232697;28;20469;-46
2023/07/19 04:14:38;;;;;;;5.33;1.90;;;19.50;71.10;;;;;;5230751;28;20293;-47
2023/07/19 04:17:10;;;;;;;1.60;1.50;;;19.60;69.90;;;;;;5215928;28;20469;-47
2023/07/19 04:19:41;;;;;;;1.53;1.43;;;19.40;69.00;;;;;;5229491;28;20847;-47
2023/07/19 04:22:11;;;;;;;6.80;1.87;;;19.70;68.90;;;;;;5214522;28;20508;-47
2023/07/19 04:24:42;;;;;;;1.50;1.40;;;19.70;68.50;;;;;;5229372;28;20553;-46
2023/07/19 04:27:13;;;;;;;2.10;1.97;;;19.70;68.20;;;;;;5222206;28;20209;-47
2023/07/19 04:29:43;;;;;;;3.80;1.40;;;19.70;68.20;;;;;;5230949;28;20187;-46
2023/07/19 04:32:15;;;;;;;2.50;1.70;;;19.70;68.20;;;;;;5209314;28;20225;-47
2023/07/19 04:34:45;;;;;;;2.97;1.53;;;19.70;67.70;;;;;;5223643;28;20218;-46
2023/07/19 04:37:16;;;;;;;1.30;1.20;;;19.70;66.90;;;;;;5229671;28;20457;-48
2023/07/19 04:39:47;;;;;;;1.63;1.53;;;19.70;66.80;;;;;;5200894;28;20186;-48
2023/07/19 04:42:19;;;;;;;3.53;1.60;;;19.90;66.40;;;;;;5222375;28;20225;-48
2023/07/19 04:44:50;;;;;;;5.33;1.57;;;20.00;65.70;;;;;;5234051;28;20221;-46
2023/07/19 04:47:20;;;;;;;1.53;1.53;;;20.00;65.00;;;;;;5241199;28;20497;-46
2023/07/19 04:49:51;;;;;;;1.10;1.07;;;20.00;64.00;;;;;;5217056;28;20256;-46
2023/07/19 04:52:22;;;;;;;1.40;1.30;;;20.00;63.20;;;;;;5213227;28;20235;-49
2023/07/19 04:54:52;;;;;;;1.23;1.20;;;20.00;63.00;;;;;;5230673;28;20264;-47
2023/07/19 04:57:23;;;;;;;1.77;1.57;;;20.00;63.00;;;;;;5232986;28;20211;-46
2023/07/19 04:59:54;;;;;;;3.40;2.10;;;20.20;62.40;;;;;;5224274;28;20189;-47
2023/07/19 05:02:24;;;;;;;4.20;1.63;;;20.30;61.40;;;;;;5242680;28;20175;-48
2023/07/19 05:04:55;;;;;;;1.43;1.33;;;20.30;61.10;;;;;;5241496;28;20652;-47
2023/07/19 05:07:26;;;;;;;1.30;1.20;;;20.50;60.10;;;;;;5241198;28;20234;-47
2023/07/19 05:09:57;;;;;;;1.50;1.40;;;20.50;59.50;;;;;;5219357;28;20834;-47
2023/07/19 05:12:27;;;;;;;1.63;1.60;;;20.50;59.20;;;;;;5236087;28;20187;-47
2023/07/19 05:14:58;;;;;;;9.23;3.10;;;20.60;59.10;;;;;;5247487;28;20263;-48
2023/07/19 05:17:29;;;;;;;4.83;1.80;;;20.70;58.90;;;;;;5235337;28;20207;-47
2023/07/19 05:19:59;;;;;;;4.50;1.40;;;20.70;58.40;;;;;;5220786;28;20183;-47
2023/07/19 05:22:30;;;;;;;2.20;1.30;;;20.80;58.30;;;;;;5238192;28;20186;-46
2023/07/19 05:25:03;;;;;;;1.30;1.20;;;20.80;57.90;;;;;;5236145;28;20190;-46
2023/07/19 05:27:33;;;;;;;2.70;1.40;;;20.90;57.70;;;;;;5218385;28;20294;-48
2023/07/19 05:30:05;;;;;;;1.57;1.13;;;21.00;57.60;;;;;;5233173;28;20956;-47
2023/07/19 05:32:35;;;;;;;1.77;1.67;;;21.00;57.30;;;;;;5218559;28;20236;-46
2023/07/19 05:35:06;;;;;;;2.70;1.40;;;21.10;57.00;;;;;;5232883;28;20867;-47
2023/07/19 05:37:39;;;;;;;1.57;1.47;;;21.20;56.70;;;;;;5226799;28;20199;-46
2023/07/19 05:40:10;;;;;;;1.70;1.27;;;21.30;56.40;;;;;;5220119;28;20277;-48
2023/07/19 05:42:41;;;;;;;2.90;1.40;;;21.30;56.70;;;;;;5238955;28;20437;-47
2023/07/19 05:45:11;;;;;;;2.00;1.40;;;21.40;56.20;;;;;;5238883;28;20802;-48
2023/07/19 05:47:42;;;;;;;2.20;1.50;;;21.50;56.10;;;;;;5225863;28;22088;-47
2023/07/19 05:50:12;;;;;;;3.47;1.63;;;21.50;55.50;;;;;;5234826;28;20195;-48
2023/07/19 05:52:43;;;;;;;1.40;1.40;;;21.60;55.30;;;;;;5239029;28;20197;-47
2023/07/19 05:55:15;;;;;;;2.73;1.70;;;21.70;54.90;;;;;;5233647;28;20751;-48
2023/07/19 05:57:45;;;;;;;1.50;1.30;;;21.70;54.40;;;;;;5233791;28;20206;-48
2023/07/19 06:00:24;;;;;;;1.30;1.20;;;21.80;54.50;;;;;;5222315;28;20443;-47
2023/07/19 06:02:55;;;;;;;1.07;1.07;;;22.10;53.50;;;;;;5218593;28;20182;-47
2023/07/19 06:05:26;;;;;;;8.33;1.40;;;22.20;52.90;;;;;;5234478;28;20437;-46
2023/07/19 06:07:57;;;;;;;1.53;1.30;;;22.50;52.70;;;;;;5221392;28;20773;-45
2023/07/19 06:10:28;;;;;;;2.77;2.07;;;22.80;52.30;;;;;;5244537;28;20446;-48
2023/07/19 06:12:58;;;;;;;2.80;1.77;;;23.10;51.80;;;;;;5221292;28;20193;-47
2023/07/19 06:15:33;;;;;;;7.33;1.80;;;23.50;51.20;;;;;;5221702;28;20202;-47
2023/07/19 06:18:03;;;;;;;12.97;1.40;;;23.80;50.20;;;;;;5235013;28;20206;-48
2023/07/19 06:20:34;;;;;;;7.20;1.80;;;24.10;49.40;;;;;;5244874;28;20440;-47
2023/07/19 06:23:04;;;;;;;3.10;1.07;;;24.20;49.30;;;;;;5237392;28;20182;-47
2023/07/19 06:25:35;;;;;;;1.50;1.23;;;24.20;48.90;;;;;;5215915;28;20280;-48
2023/07/19 06:28:05;;;;;;;1.60;1.50;;;24.30;48.70;;;;;;5235625;28;20232;-49
2023/07/19 06:30:36;;;;;;;6.80;1.30;;;24.40;48.60;;;;;;5214150;28;20659;-46
2023/07/19 06:33:07;;;;;;;2.50;1.33;;;24.20;48.20;;;;;;5225784;28;20187;-46
2023/07/19 06:35:37;;;;;;;1.53;1.30;;;24.00;48.10;;;;;;5242238;28;20213;-48
2023/07/19 06:38:08;;;;;;;4.00;1.80;;;23.80;48.50;;;;;;5207740;28;20668;-48
2023/07/19 06:40:38;;;;;;;1.50;1.33;;;23.90;48.50;;;;;;5221488;28;20185;-47
2023/07/19 06:43:09;;;;;;;1.03;1.03;;;24.10;48.30;;;;;;5240959;28;20603;-50
2023/07/19 06:45:40;;;;;;;1.83;1.10;;;24.40;48.30;;;;;;5243113;28;20185;-49
2023/07/19 06:48:10;;;;;;;2.10;1.80;;;24.90;48.10;;;;;;5226417;28;20554;-50
2023/07/19 06:50:41;;;;;;;4.63;2.00;;;26.30;45.90;;;;;;5238004;28;20228;-48
2023/07/19 06:53:12;;;;;;;8.07;2.33;;;27.40;43.60;;;;;;5232518;28;20182;-48
2023/07/19 06:55:42;;;;;;;2.63;1.97;;;27.30;42.50;;;;;;5224077;28;20364;-49
2023/07/19 06:58:13;;;;;;;2.07;1.37;;;26.80;42.80;;;;;;5221904;28;20735;-48
2023/07/19 07:00:43;;;;;;;1.73;1.70;;;26.80;43.90;;;;;;5240626;28;20560;-49
2023/07/19 07:03:14;;;;;;;1.97;1.50;;;28.20;41.70;;;;;;5237210;28;20235;-48
2023/07/19 07:05:48;;;;;;;2.53;1.43;;;29.20;39.80;;;;;;5234392;28;20870;-48
2023/07/19 07:08:18;;;;;;;2.73;1.67;;;29.70;38.50;;;;;;5195897;28;20198;-49
2023/07/19 07:10:49;;;;;;;2.00;1.70;;;31.80;36.20;;;;;;5228642;28;20978;-47
2023/07/19 07:13:20;;;;;;;2.17;1.73;;;34.00;31.50;;;;;;5216146;28;20203;-48
2023/07/19 07:15:51;;;;;;;7.90;1.50;;;33.70;31.10;;;;;;5231000;28;20205;-47
2023/07/19 07:18:22;;;;;;;1.80;1.60;;;32.40;31.90;;;;;;5230802;28;20470;-49
2023/07/19 07:20:53;;;;;;;7.03;1.67;;;31.80;32.70;;;;;;5230544;28;20433;-49
2023/07/19 07:23:23;;;;;;;3.50;2.30;;;31.60;32.90;;;;;;5229617;28;20275;-47
2023/07/19 07:25:54;;;;;;;5.77;1.90;;;30.70;33.90;;;;;;5222556;28;20272;-49
2023/07/19 07:28:25;;;;;;;2.77;2.57;;;30.10;34.90;;;;;;5237406;28;20236;-50
2023/07/19 07:30:55;;;;;;;1.70;1.40;;;30.50;34.90;;;;;;5237645;28;20184;-49
2023/07/19 07:33:26;;;;;;;1.00;0.97;;;31.10;34.40;;;;;;5225691;28;20233;-50
2023/07/19 07:35:56;;;;;;;2.03;1.60;;;32.10;33.10;;;;;;5209298;28;20316;-49
2023/07/19 07:38:27;;;;;;;2.70;1.67;;;32.90;32.10;;;;;;5241589;28;20213;-48
2023/07/19 07:41:03;;;;;;;2.07;1.50;;;33.90;31.40;;;;;;5232819;28;20265;-48
2023/07/19 07:43:33;;;;;;;7.43;2.13;;;34.90;29.80;;;;;;5221718;28;20232;-49
2023/07/19 07:46:04;;;;;;;1.98;1.67;;;36.60;28.60;;;;;;5240192;28;20181;-48
2023/07/19 07:48:34;;;;;;;1.40;1.40;;;37.70;27.00;;;;;;5231473;28;20562;-49
2023/07/19 07:51:05;;;;;;;2.15;1.77;;;39.00;26.40;;;;;;5222793;28;20225;-50
2023/07/19 07:53:36;;;;;;;2.63;1.90;;;39.20;25.50;;;;;;5221257;28;20540;-49
2023/07/19 07:56:06;;;;;;;8.43;2.13;;;38.00;25.70;;;;;;5238992;28;20644;-49
2023/07/19 07:58:37;;;;;;;5.28;2.17;;;37.20;26.70;;;;;;5238159;28;20225;-50
2023/07/19 08:01:07;;;;;;;3.17;1.85;;;36.90;26.60;;;;;;5239230;28;20192;-48
2023/07/19 08:03:38;;;;;;;2.15;2.00;;;36.10;27.30;;;;;;5242272;28;20280;-47
2023/07/19 08:06:09;;;;;;;6.38;2.25;;;35.40;27.70;;;;;;5221344;28;20910;-51
2023/07/19 08:08:39;;;;;;;4.63;1.67;;;34.40;28.60;;;;;;5235853;28;20315;-51
2023/07/19 08:11:10;;;;;;;1.80;1.63;;;33.20;29.30;;;;;;5233112;28;20630;-48
2023/07/19 08:13:41;;;;;;;1.97;1.87;;;31.80;30.50;;;;;;5235895;28;20206;-47
2023/07/19 08:16:11;;;;;;;1.57;1.47;;;30.60;32.40;;;;;;5231944;28;20206;-49
2023/07/19 08:18:42;;;;;;;3.70;2.23;;;29.60;33.80;;;;;;5217773;28;20202;-48
2023/07/19 08:21:12;;;;;;;3.30;1.60;;;29.10;35.00;;;;;;5236100;28;20665;-48
2023/07/19 08:23:43;;;;;;;1.43;1.30;;;28.60;35.40;;;;;;5218176;28;20197;-48
2023/07/19 08:26:14;;;;;;;1.70;1.60;;;28.20;36.20;;;;;;5222836;28;20280;-48
2023/07/19 08:28:44;;;;;;;1.87;1.77;;;28.00;36.50;;;;;;5236840;28;20258;-48
2023/07/19 08:31:16;;;;;;;5.83;1.27;;;27.80;37.20;;;;;;5218471;28;20653;-50
2023/07/19 08:33:46;;;;;;;1.80;1.70;;;27.40;37.60;;;;;;5237284;28;20182;-50
2023/07/19 08:36:17;;;;;;;2.10;1.50;;;27.30;38.50;;;;;;5237943;28;20467;-48
2023/07/19 08:38:47;;;;;;;2.03;1.77;;;27.40;38.60;;;;;;5227264;28;20221;-47
2023/07/19 08:41:23;;;;;;;8.80;2.00;;;27.60;38.50;;;;;;5239860;28;20243;-48
2023/07/19 08:43:55;;;;;;;1.90;1.80;;;27.70;38.50;;;;;;5223201;28;20262;-48
2023/07/19 08:46:26;;;;;;;12.70;4.30;;;27.60;38.60;;;;;;5224522;28;20524;-47
2023/07/19 08:48:57;;;;;;;6.27;2.20;;;27.60;39.00;;;;;;5239033;28;21594;-48
2023/07/19 08:51:28;;;;;;;2.03;1.40;;;27.70;38.10;;;;;;5242131;28;20855;-49
2023/07/19 08:53:59;;;;;;;1.57;1.47;;;28.10;37.80;;;;;;5222554;28;20436;-47
2023/07/19 08:56:31;;;;;;;4.10;1.63;;;28.60;36.40;;;;;;5222169;28;20182;-52
2023/07/19 08:59:03;;;;;;;1.70;1.60;;;28.60;36.20;;;;;;5236983;28;20953;-48
2023/07/19 09:01:34;;;;;;;15.73;5.00;;;28.50;36.10;;;;;;5239788;28;20458;-48
2023/07/19 09:04:09;;;;;;;2.50;1.43;;;28.60;36.60;;;;;;5223236;28;20428;-48
2023/07/19 09:06:42;;;;;;;1.60;1.50;;;28.60;35.60;;;;;;5221114;28;20610;-53
2023/07/19 09:09:13;;;;;;;3.90;1.77;;;28.60;35.40;;;;;;5237405;28;20479;-48
2023/07/19 09:11:50;;;;;;;1.50;1.40;;;28.90;35.80;;;;;;5235129;28;20800;-47
2023/07/19 09:14:35;;;;;;;1.70;1.60;;;29.20;34.70;;;;;;5220537;28;20459;-49
2023/07/19 09:17:06;;;;;;;1.17;1.17;;;29.50;34.70;;;;;;5213023;28;20847;-48
2023/07/19 09:19:41;;;;;;;1.63;1.53;;;29.70;34.70;;;;;;5241575;28;20527;-47
2023/07/19 09:22:14;;;;;;;2.53;1.60;;;29.40;34.10;;;;;;5226101;28;20465;-51
2023/07/19 09:25:03;;;;;;;1.30;1.30;;;28.80;34.80;;;;;;5242179;28;20464;-48
2023/07/19 09:27:34;;;;;;;1.30;1.30;;;28.50;35.70;;;;;;5225248;28;20491;-46
2023/07/19 09:30:12;;;;;;;6.33;1.70;;;28.50;35.90;;;;;;5223093;28;20460;-49
2023/07/19 09:32:42;;;;;;;1.60;1.03;;;28.30;35.60;;;;;;5219384;28;20648;-48
2023/07/19 09:35:13;;;;;;;2.70;1.80;;;28.40;35.90;;;;;;5240242;28;21461;-50
2023/07/19 09:37:43;;;;;;;2.20;1.43;;;28.50;36.20;;;;;;5240672;28;20197;-49
2023/07/19 09:40:14;;;;;;;2.00;1.90;;;28.40;35.40;;;;;;5238087;28;20240;-47
2023/07/19 09:42:45;;;;;;;4.13;1.63;;;28.50;35.90;;;;;;5204340;28;20195;-48
2023/07/19 09:45:17;;;;;;;1.90;1.80;;;28.60;35.60;;;;;;5218122;28;20630;-47
2023/07/19 09:47:49;;;;;;;2.90;1.40;;;29.00;35.30;;;;;;5238545;28;20569;-47
2023/07/19 09:50:23;;;;;;;2.03;1.60;;;29.30;35.50;;;;;;5223246;28;20449;-48
2023/07/19 09:52:58;;;;;;;1.80;1.80;;;29.60;35.10;;;;;;5220550;28;20424;-47
2023/07/19 09:55:31;;;;;;;4.33;1.73;;;29.30;34.90;;;;;;5219632;28;20994;-47
2023/07/19 09:58:03;;;;;;;2.87;2.13;;;29.10;35.70;;;;;;5220082;28;20495;-49
2023/07/19 10:00:34;;;;;;;2.10;1.80;;;29.10;36.20;;;;;;5238991;28;20445;-49
2023/07/19 10:03:10;;;;;;;2.03;1.40;;;29.10;35.50;;;;;;5233136;28;20437;-50
2023/07/19 10:05:43;;;;;;;1.70;1.60;;;29.10;35.80;;;;;;5237610;28;20444;-48
2023/07/19 10:08:15;;;;;;;4.50;1.40;;;29.00;35.60;;;;;;5231116;28;20448;-50
2023/07/19 10:10:45;;;;;;;3.80;2.13;;;29.00;35.40;;;;;;5238212;28;20458;-50
2023/07/19 10:13:16;;;;;;;4.97;2.13;;;29.10;35.50;;;;;;5219956;28;20445;-49
2023/07/19 10:15:52;;;;;;;3.70;1.50;;;29.40;35.20;;;;;;5215075;28;20222;-49
2023/07/19 10:18:24;;;;;;;2.23;2.10;;;29.50;34.50;;;;;;5213589;28;20519;-49
2023/07/19 10:21:03;;;;;;;1.70;1.60;;;29.50;34.40;;;;;;5196582;28;20423;-49
2023/07/19 10:23:34;;;;;;;2.23;1.60;;;29.10;33.90;;;;;;5228580;28;20467;-49
2023/07/19 10:26:06;;;;;;;2.80;1.97;;;28.80;34.70;;;;;;5217471;28;20440;-48
2023/07/19 10:28:38;;;;;;;1.67;1.50;;;28.70;33.70;;;;;;5217782;28;20457;-50
2023/07/19 10:31:11;;;;;;;2.73;2.47;;;28.50;35.10;;;;;;5214066;28;20424;-50
2023/07/19 10:33:42;;;;;;;29.47;13.37;;;28.30;35.70;;;;;;5230552;28;20843;-48
2023/07/19 10:36:13;;;;;;;4.43;3.80;;;28.40;36.00;;;;;;5219980;28;20494;-49
2023/07/19 10:38:44;;;;;;;6.90;2.23;;;28.50;36.10;;;;;;5222824;28;20594;-47
2023/07/19 10:41:17;;;;;;;1.87;1.77;;;28.80;35.90;;;;;;5234824;28;20477;-48
2023/07/19 10:43:47;;;;;;;1.60;1.50;;;29.00;35.70;;;;;;5231058;28;20183;-51
2023/07/19 10:46:18;;;;;;;5.80;4.03;;;29.10;35.20;;;;;;5220699;28;21007;-49
2023/07/19 10:48:50;;;;;;;3.57;2.43;;;29.10;35.20;;;;;;5233947;28;20661;-49
2023/07/19 10:51:24;;;;;;;3.60;2.50;;;29.40;35.50;;;;;;5238447;28;20471;-48
2023/07/19 10:53:57;;;;;;;8.70;4.00;;;29.50;35.10;;;;;;5215725;28;20495;-48
2023/07/19 10:56:29;;;;;;;6.63;3.70;;;29.30;35.70;;;;;;5218487;28;21055;-48
2023/07/19 10:59:00;;;;;;;2.13;2.03;;;29.30;36.00;;;;;;5235742;28;20935;-47
2023/07/19 11:01:32;;;;;;;1.50;1.50;;;29.50;36.20;;;;;;5231316;28;20582;-49
2023/07/19 11:04:07;;;;;;;2.20;2.00;;;29.60;35.80;;;;;;5218068;28;20773;-49
2023/07/19 11:06:52;;;;;;;4.47;1.90;;;29.70;35.40;;;;;;5241409;28;20432;-48
2023/07/19 11:09:22;;;;;;;8.97;2.17;;;29.90;35.50;;;;;;5237295;28;20431;-50
2023/07/19 11:11:53;;;;;;;7.17;1.73;;;30.00;35.50;;;;;;5221675;28;21011;-48
2023/07/19 11:14:31;;;;;;;1.93;1.70;;;30.00;35.00;;;;;;5223733;28;20178;-50
2023/07/19 11:17:02;;;;;;;6.60;3.07;;;30.00;35.00;;;;;;5239564;28;20192;-49
2023/07/19 11:19:38;;;;;;;5.87;3.50;;;30.20;34.40;;;;;;5231644;28;20428;-49
2023/07/19 11:22:09;;;;;;;1.53;1.53;;;30.00;34.20;;;;;;5222606;28;20181;-48
2023/07/19 11:24:41;;;;;;;4.00;2.20;;;29.50;34.70;;;;;;5220122;28;20490;-50
2023/07/19 11:27:12;;;;;;;4.20;2.50;;;28.70;35.00;;;;;;5227905;28;20617;-48
2023/07/19 11:29:49;;;;;;;4.30;1.90;;;28.30;36.80;;;;;;5237314;28;20432;-49
2023/07/19 11:32:23;;;;;;;5.80;1.97;;;27.80;37.40;;;;;;5222624;28;20467;-50
2023/07/19 11:34:56;;;;;;;2.77;2.10;;;27.50;38.40;;;;;;5235761;28;20460;-48
2023/07/19 11:37:31;;;;;;;2.20;2.10;;;27.20;39.10;;;;;;5232485;28;20579;-49
2023/07/19 11:40:05;;;;;;;5.07;2.10;;;26.90;39.70;;;;;;5224392;28;20512;-48
2023/07/19 11:42:46;;;;;;;2.90;2.70;;;26.80;39.80;;;;;;5221019;28;20420;-50
2023/07/19 11:45:19;;;;;;;3.57;2.73;;;26.90;40.10;;;;;;5234396;28;20491;-49
2023/07/19 11:47:58;;;;;;;4.60;2.23;;;27.00;39.70;;;;;;5237126;28;20621;-48
2023/07/19 11:50:29;;;;;;;2.17;1.90;;;27.10;39.50;;;;;;5220831;28;20432;-48
2023/07/19 11:53:01;;;;;;;1.40;1.40;;;27.40;39.40;;;;;;5233666;28;20441;-49
2023/07/19 11:55:32;;;;;;;1.63;1.50;;;27.60;38.60;;;;;;5238030;28;20506;-48
2023/07/19 11:58:03;;;;;;;11.73;2.20;;;27.70;38.30;;;;;;5236166;28;20504;-48
2023/07/19 12:00:33;;;;;;;10.50;7.97;;;27.60;38.40;;;;;;5219747;28;20178;-50
2023/07/19 12:03:04;;;;;;;3.33;3.03;;;27.70;38.90;;;;;;5241840;28;20228;-49
2023/07/19 12:05:35;;;;;;;1.93;1.70;;;27.80;38.50;;;;;;5228174;28;20589;-48
2023/07/19 12:08:06;;;;;;;2.70;2.40;;;27.60;38.40;;;;;;5227509;28;20260;-48
2023/07/19 12:10:36;;;;;;;2.80;1.50;;;27.60;38.60;;;;;;5244283;28;20242;-48
2023/07/19 12:13:07;;;;;;;4.03;2.00;;;27.40;38.50;;;;;;5227164;28;20193;-49
2023/07/19 12:15:38;;;;;;;19.90;6.33;;;27.40;39.10;;;;;;5225926;28;20282;-48
2023/07/19 12:18:09;;;;;;;1.93;1.83;;;27.20;39.30;;;;;;5224621;28;21042;-49
2023/07/19 12:20:39;;;;;;;3.93;2.20;;;27.40;39.80;;;;;;5222430;28;20646;-47
2023/07/19 12:23:10;;;;;;;2.70;1.80;;;27.40;39.80;;;;;;5224344;28;20247;-47
2023/07/19 12:25:41;;;;;;;8.53;2.07;;;27.50;39.50;;;;;;5223333;28;20222;-47
2023/07/19 12:28:12;;;;;;;3.20;2.83;;;27.10;39.60;;;;;;5226329;28;20210;-48
2023/07/19 12:30:43;;;;;;;6.73;2.73;;;27.20;40.00;;;;;;5241480;28;20186;-49
2023/07/19 12:33:13;;;;;;;2.90;2.00;;;27.10;40.10;;;;;;5226470;28;20197;-50
2023/07/19 12:35:46;;;;;;;2.43;2.23;;;27.20;40.20;;;;;;5209246;28;20216;-48
2023/07/19 12:38:17;;;;;;;1.57;1.47;;;27.20;40.20;;;;;;5223344;28;20234;-48
2023/07/19 12:40:48;;;;;;;1.93;1.70;;;27.20;39.70;;;;;;5222435;28;20460;-50
2023/07/19 12:43:19;;;;;;;5.80;1.73;;;27.40;39.60;;;;;;5240011;28;20273;-49
2023/07/19 12:45:49;;;;;;;2.60;1.60;;;27.40;39.40;;;;;;5241668;28;20187;-47
2023/07/19 12:48:20;;;;;;;2.30;1.67;;;27.50;39.50;;;;;;5220225;28;20839;-48
2023/07/19 12:50:51;;;;;;;1.90;1.40;;;27.30;39.40;;;;;;5228293;28;20186;-49
2023/07/19 12:53:22;;;;;;;2.33;2.13;;;27.50;39.70;;;;;;5239923;28;20237;-49
2023/07/19 12:55:53;;;;;;;4.13;2.70;;;27.70;39.50;;;;;;5223252;28;20289;-49
2023/07/19 12:58:24;;;;;;;2.23;1.73;;;28.00;39.20;;;;;;5244021;28;20547;-49
2023/07/19 13:00:56;;;;;;;4.73;4.30;;;28.10;38.90;;;;;;5242233;28;20191;-49
2023/07/19 13:03:26;;;;;;;3.90;1.70;;;27.70;38.50;;;;;;5241079;28;20437;-48
2023/07/19 13:05:57;;;;;;;6.50;2.40;;;27.30;39.10;;;;;;5242329;28;20197;-50